sensor_id;sensor_type;location;lat;lon;timestamp;P1;durP1;ratioP1;P2;durP2;ratioP2
29938;SDS011;16799;50.844;5.304;2023-05-17T00:01:04;11.97;;;5.10;;
29938;SDS011;16799;50.844;5.304;2023-05-17T00:03:30;11.87;;;4.93;;
29938;SDS011;16799;50.844;5.304;2023-05-17T00:05:55;8.40;;;4.10;;
29938;SDS011;16799;50.844;5.304;2023-05-17T00:08:21;10.07;;;6.60;;
29938;SDS011;16799;50.844;5.304;2023-05-17T00:10:47;6.33;;;4.93;;
29938;SDS011;16799;50.844;5.304;2023-05-17T00:13:12;8.87;;;4.70;;
29938;SDS011;16799;50.844;5.304;2023-05-17T00:15:38;6.53;;;5.57;;
29938;SDS011;16799;50.844;5.304;2023-05-17T00:18:04;7.20;;;5.43;;
29938;SDS011;16799;50.844;5.304;2023-05-17T00:20:29;15.17;;;5.43;;
29938;SDS011;16799;50.844;5.304;2023-05-17T00:22:55;27.30;;;8.03;;
29938;SDS011;16799;50.844;5.304;2023-05-17T00:25:21;11.30;;;6.17;;
29938;SDS011;16799;50.844;5.304;2023-05-17T00:27:47;9.90;;;6.37;;
29938;SDS011;16799;50.844;5.304;2023-05-17T00:30:12;10.03;;;4.50;;
29938;SDS011;16799;50.844;5.304;2023-05-17T00:32:38;8.87;;;6.90;;
29938;SDS011;16799;50.844;5.304;2023-05-17T00:35:04;10.63;;;6.23;;
29938;SDS011;16799;50.844;5.304;2023-05-17T00:37:30;15.97;;;6.17;;
29938;SDS011;16799;50.844;5.304;2023-05-17T00:39:55;25.40;;;6.27;;
29938;SDS011;16799;50.844;5.304;2023-05-17T00:42:21;12.07;;;5.80;;
29938;SDS011;16799;50.844;5.304;2023-05-17T00:44:47;30.87;;;7.03;;
29938;SDS011;16799;50.844;5.304;2023-05-17T00:47:12;6.00;;;5.50;;
29938;SDS011;16799;50.844;5.304;2023-05-17T00:49:38;6.93;;;6.20;;
29938;SDS011;16799;50.844;5.304;2023-05-17T00:52:04;7.73;;;5.13;;
29938;SDS011;16799;50.844;5.304;2023-05-17T00:54:30;7.07;;;6.50;;
29938;SDS011;16799;50.844;5.304;2023-05-17T00:56:56;8.73;;;6.40;;
29938;SDS011;16799;50.844;5.304;2023-05-17T00:59:23;9.53;;;5.50;;
29938;SDS011;16799;50.844;5.304;2023-05-17T01:01:50;10.17;;;5.47;;
29938;SDS011;16799;50.844;5.304;2023-05-17T01:04:16;11.40;;;6.80;;
29938;SDS011;16799;50.844;5.304;2023-05-17T01:06:42;10.73;;;6.10;;
29938;SDS011;16799;50.844;5.304;2023-05-17T01:09:09;15.90;;;7.27;;
29938;SDS011;16799;50.844;5.304;2023-05-17T01:16:55;10.13;;;6.43;;
29938;SDS011;16799;50.844;5.304;2023-05-17T01:22:19;9.77;;;8.73;;
29938;SDS011;16799;50.844;5.304;2023-05-17T01:25:03;7.00;;;6.27;;
29938;SDS011;16799;50.844;5.304;2023-05-17T01:27:40;10.70;;;6.30;;
29938;SDS011;16799;50.844;5.304;2023-05-17T01:30:11;12.03;;;6.60;;
29938;SDS011;16799;50.844;5.304;2023-05-17T01:32:39;13.43;;;7.83;;
29938;SDS011;16799;50.844;5.304;2023-05-17T01:35:06;10.30;;;7.50;;
29938;SDS011;16799;50.844;5.304;2023-05-17T01:37:32;7.00;;;6.50;;
29938;SDS011;16799;50.844;5.304;2023-05-17T01:39:57;12.23;;;7.30;;
29938;SDS011;16799;50.844;5.304;2023-05-17T01:42:26;12.83;;;7.80;;
29938;SDS011;16799;50.844;5.304;2023-05-17T01:45:07;7.40;;;6.13;;
29938;SDS011;16799;50.844;5.304;2023-05-17T01:50:44;7.27;;;6.60;;
29938;SDS011;16799;50.844;5.304;2023-05-17T01:56:21;10.57;;;5.80;;
29938;SDS011;16799;50.844;5.304;2023-05-17T01:58:57;9.23;;;5.80;;
29938;SDS011;16799;50.844;5.304;2023-05-17T02:01:26;12.43;;;6.17;;
29938;SDS011;16799;50.844;5.304;2023-05-17T02:03:54;8.23;;;7.40;;
29938;SDS011;16799;50.844;5.304;2023-05-17T02:06:20;7.87;;;5.83;;
29938;SDS011;16799;50.844;5.304;2023-05-17T02:08:45;10.83;;;6.40;;
29938;SDS011;16799;50.844;5.304;2023-05-17T02:11:11;8.40;;;6.10;;
29938;SDS011;16799;50.844;5.304;2023-05-17T02:13:37;6.50;;;5.90;;
29938;SDS011;16799;50.844;5.304;2023-05-17T02:16:02;11.00;;;7.17;;
29938;SDS011;16799;50.844;5.304;2023-05-17T02:18:29;10.77;;;8.57;;
29938;SDS011;16799;50.844;5.304;2023-05-17T02:20:56;8.00;;;6.80;;
29938;SDS011;16799;50.844;5.304;2023-05-17T02:23:22;15.67;;;9.03;;
29938;SDS011;16799;50.844;5.304;2023-05-17T02:25:49;12.20;;;9.30;;
29938;SDS011;16799;50.844;5.304;2023-05-17T02:28:14;13.93;;;10.43;;
29938;SDS011;16799;50.844;5.304;2023-05-17T02:30:40;29.30;;;10.77;;
29938;SDS011;16799;50.844;5.304;2023-05-17T02:33:06;18.27;;;10.90;;
29938;SDS011;16799;50.844;5.304;2023-05-17T02:35:32;12.17;;;10.90;;
29938;SDS011;16799;50.844;5.304;2023-05-17T02:37:58;13.10;;;8.30;;
29938;SDS011;16799;50.844;5.304;2023-05-17T02:40:24;10.23;;;9.30;;
29938;SDS011;16799;50.844;5.304;2023-05-17T02:42:50;10.73;;;9.70;;
29938;SDS011;16799;50.844;5.304;2023-05-17T02:45:15;17.07;;;10.17;;
29938;SDS011;16799;50.844;5.304;2023-05-17T02:47:41;10.13;;;9.13;;
29938;SDS011;16799;50.844;5.304;2023-05-17T02:50:07;13.03;;;9.53;;
29938;SDS011;16799;50.844;5.304;2023-05-17T02:52:33;12.83;;;7.20;;
29938;SDS011;16799;50.844;5.304;2023-05-17T02:54:59;15.43;;;8.37;;
29938;SDS011;16799;50.844;5.304;2023-05-17T02:57:24;9.93;;;7.57;;
29938;SDS011;16799;50.844;5.304;2023-05-17T02:59:50;11.67;;;8.10;;
29938;SDS011;16799;50.844;5.304;2023-05-17T03:02:16;9.67;;;8.67;;
29938;SDS011;16799;50.844;5.304;2023-05-17T03:04:41;10.87;;;8.43;;
29938;SDS011;16799;50.844;5.304;2023-05-17T03:07:07;11.93;;;9.23;;
29938;SDS011;16799;50.844;5.304;2023-05-17T03:09:33;9.20;;;8.10;;
29938;SDS011;16799;50.844;5.304;2023-05-17T03:11:59;10.50;;;8.10;;
29938;SDS011;16799;50.844;5.304;2023-05-17T03:14:24;8.07;;;7.17;;
29938;SDS011;16799;50.844;5.304;2023-05-17T03:16:50;12.10;;;10.20;;
29938;SDS011;16799;50.844;5.304;2023-05-17T03:19:16;20.90;;;7.70;;
29938;SDS011;16799;50.844;5.304;2023-05-17T03:21:41;9.83;;;8.93;;
29938;SDS011;16799;50.844;5.304;2023-05-17T03:24:07;10.03;;;9.03;;
29938;SDS011;16799;50.844;5.304;2023-05-17T03:26:33;15.50;;;9.93;;
29938;SDS011;16799;50.844;5.304;2023-05-17T03:28:58;12.97;;;8.20;;
29938;SDS011;16799;50.844;5.304;2023-05-17T03:31:24;13.67;;;9.70;;
29938;SDS011;16799;50.844;5.304;2023-05-17T03:33:50;8.20;;;7.33;;
29938;SDS011;16799;50.844;5.304;2023-05-17T03:36:15;10.10;;;8.83;;
29938;SDS011;16799;50.844;5.304;2023-05-17T03:38:41;12.03;;;8.67;;
29938;SDS011;16799;50.844;5.304;2023-05-17T03:41:07;9.90;;;7.70;;
29938;SDS011;16799;50.844;5.304;2023-05-17T03:43:32;9.63;;;7.70;;
29938;SDS011;16799;50.844;5.304;2023-05-17T03:45:58;20.00;;;8.43;;
29938;SDS011;16799;50.844;5.304;2023-05-17T03:48:24;29.33;;;11.87;;
29938;SDS011;16799;50.844;5.304;2023-05-17T03:50:50;18.60;;;10.10;;
29938;SDS011;16799;50.844;5.304;2023-05-17T03:53:15;20.10;;;10.83;;
29938;SDS011;16799;50.844;5.304;2023-05-17T03:55:41;12.73;;;10.10;;
29938;SDS011;16799;50.844;5.304;2023-05-17T03:58:07;10.67;;;8.90;;
29938;SDS011;16799;50.844;5.304;2023-05-17T04:00:32;9.17;;;8.27;;
29938;SDS011;16799;50.844;5.304;2023-05-17T04:02:58;8.13;;;7.17;;
29938;SDS011;16799;50.844;5.304;2023-05-17T04:05:24;11.03;;;7.97;;
29938;SDS011;16799;50.844;5.304;2023-05-17T04:07:50;16.57;;;9.50;;
29938;SDS011;16799;50.844;5.304;2023-05-17T04:10:16;11.53;;;8.30;;
29938;SDS011;16799;50.844;5.304;2023-05-17T04:12:41;9.67;;;8.67;;
29938;SDS011;16799;50.844;5.304;2023-05-17T04:15:07;9.30;;;7.10;;
29938;SDS011;16799;50.844;5.304;2023-05-17T04:17:33;9.63;;;6.90;;
29938;SDS011;16799;50.844;5.304;2023-05-17T04:19:59;11.23;;;7.70;;
29938;SDS011;16799;50.844;5.304;2023-05-17T04:22:24;18.83;;;9.93;;
29938;SDS011;16799;50.844;5.304;2023-05-17T04:24:50;11.30;;;10.20;;
29938;SDS011;16799;50.844;5.304;2023-05-17T04:27:16;22.00;;;10.43;;
29938;SDS011;16799;50.844;5.304;2023-05-17T04:29:41;15.33;;;9.00;;
29938;SDS011;16799;50.844;5.304;2023-05-17T04:32:07;14.33;;;9.97;;
29938;SDS011;16799;50.844;5.304;2023-05-17T04:34:33;13.37;;;10.37;;
29938;SDS011;16799;50.844;5.304;2023-05-17T04:36:59;11.70;;;9.33;;
29938;SDS011;16799;50.844;5.304;2023-05-17T04:39:25;12.20;;;8.80;;
29938;SDS011;16799;50.844;5.304;2023-05-17T04:41:50;10.53;;;9.53;;
29938;SDS011;16799;50.844;5.304;2023-05-17T04:44:16;11.33;;;10.10;;
29938;SDS011;16799;50.844;5.304;2023-05-17T04:46:42;15.43;;;9.97;;
29938;SDS011;16799;50.844;5.304;2023-05-17T04:49:08;13.73;;;9.67;;
29938;SDS011;16799;50.844;5.304;2023-05-17T04:51:34;18.87;;;10.50;;
29938;SDS011;16799;50.844;5.304;2023-05-17T04:54:00;21.00;;;11.90;;
29938;SDS011;16799;50.844;5.304;2023-05-17T04:56:26;16.47;;;11.40;;
29938;SDS011;16799;50.844;5.304;2023-05-17T04:58:52;15.90;;;8.90;;
29938;SDS011;16799;50.844;5.304;2023-05-17T05:01:18;13.40;;;10.40;;
29938;SDS011;16799;50.844;5.304;2023-05-17T05:03:44;21.00;;;9.97;;
29938;SDS011;16799;50.844;5.304;2023-05-17T05:06:10;16.73;;;8.73;;
29938;SDS011;16799;50.844;5.304;2023-05-17T05:08:36;16.37;;;11.50;;
29938;SDS011;16799;50.844;5.304;2023-05-17T05:11:02;28.27;;;13.10;;
29938;SDS011;16799;50.844;5.304;2023-05-17T05:13:28;18.50;;;10.80;;
29938;SDS011;16799;50.844;5.304;2023-05-17T05:15:54;22.93;;;10.93;;
29938;SDS011;16799;50.844;5.304;2023-05-17T05:18:19;19.47;;;12.93;;
29938;SDS011;16799;50.844;5.304;2023-05-17T05:20:46;21.07;;;12.60;;
29938;SDS011;16799;50.844;5.304;2023-05-17T05:23:12;14.13;;;11.03;;
29938;SDS011;16799;50.844;5.304;2023-05-17T05:25:38;21.80;;;11.20;;
29938;SDS011;16799;50.844;5.304;2023-05-17T05:28:04;17.33;;;11.10;;
29938;SDS011;16799;50.844;5.304;2023-05-17T05:30:32;26.37;;;13.03;;
29938;SDS011;16799;50.844;5.304;2023-05-17T05:32:58;21.00;;;11.70;;
29938;SDS011;16799;50.844;5.304;2023-05-17T05:35:24;43.43;;;12.93;;
29938;SDS011;16799;50.844;5.304;2023-05-17T05:37:54;31.77;;;13.67;;
29938;SDS011;16799;50.844;5.304;2023-05-17T05:40:20;20.03;;;13.13;;
29938;SDS011;16799;50.844;5.304;2023-05-17T05:42:46;18.60;;;12.53;;
29938;SDS011;16799;50.844;5.304;2023-05-17T05:45:11;14.50;;;11.80;;
29938;SDS011;16799;50.844;5.304;2023-05-17T05:47:37;21.10;;;17.33;;
29938;SDS011;16799;50.844;5.304;2023-05-17T05:50:03;18.93;;;11.10;;
29938;SDS011;16799;50.844;5.304;2023-05-17T05:52:30;17.37;;;13.47;;
29938;SDS011;16799;50.844;5.304;2023-05-17T05:54:55;31.77;;;14.53;;
29938;SDS011;16799;50.844;5.304;2023-05-17T05:57:21;32.97;;;13.23;;
29938;SDS011;16799;50.844;5.304;2023-05-17T05:59:47;25.90;;;12.43;;
29938;SDS011;16799;50.844;5.304;2023-05-17T06:02:12;23.63;;;13.53;;
29938;SDS011;16799;50.844;5.304;2023-05-17T06:04:38;19.60;;;13.30;;
29938;SDS011;16799;50.844;5.304;2023-05-17T06:07:04;17.70;;;12.20;;
29938;SDS011;16799;50.844;5.304;2023-05-17T06:09:29;18.80;;;12.90;;
29938;SDS011;16799;50.844;5.304;2023-05-17T06:11:55;44.87;;;15.03;;
29938;SDS011;16799;50.844;5.304;2023-05-17T06:14:21;31.53;;;12.40;;
29938;SDS011;16799;50.844;5.304;2023-05-17T06:16:46;26.93;;;13.67;;
29938;SDS011;16799;50.844;5.304;2023-05-17T06:19:12;24.37;;;12.10;;
29938;SDS011;16799;50.844;5.304;2023-05-17T06:21:39;23.70;;;13.70;;
29938;SDS011;16799;50.844;5.304;2023-05-17T06:24:04;35.43;;;14.37;;
29938;SDS011;16799;50.844;5.304;2023-05-17T06:26:30;36.43;;;13.60;;
29938;SDS011;16799;50.844;5.304;2023-05-17T06:28:56;36.70;;;14.77;;
29938;SDS011;16799;50.844;5.304;2023-05-17T06:31:21;34.73;;;17.23;;
29938;SDS011;16799;50.844;5.304;2023-05-17T06:33:47;36.10;;;14.93;;
29938;SDS011;16799;50.844;5.304;2023-05-17T06:36:13;31.83;;;16.03;;
29938;SDS011;16799;50.844;5.304;2023-05-17T06:38:38;34.60;;;15.03;;
29938;SDS011;16799;50.844;5.304;2023-05-17T06:41:04;50.97;;;15.83;;
29938;SDS011;16799;50.844;5.304;2023-05-17T06:43:30;32.20;;;16.00;;
29938;SDS011;16799;50.844;5.304;2023-05-17T06:45:55;26.77;;;14.87;;
29938;SDS011;16799;50.844;5.304;2023-05-17T06:48:21;32.50;;;18.23;;
29938;SDS011;16799;50.844;5.304;2023-05-17T06:50:48;35.60;;;14.67;;
29938;SDS011;16799;50.844;5.304;2023-05-17T06:53:13;38.40;;;15.17;;
29938;SDS011;16799;50.844;5.304;2023-05-17T06:55:39;35.80;;;15.93;;
29938;SDS011;16799;50.844;5.304;2023-05-17T06:58:05;62.40;;;16.77;;
29938;SDS011;16799;50.844;5.304;2023-05-17T07:00:31;30.87;;;16.73;;
29938;SDS011;16799;50.844;5.304;2023-05-17T07:02:56;44.67;;;16.97;;
29938;SDS011;16799;50.844;5.304;2023-05-17T07:05:22;24.33;;;15.03;;
29938;SDS011;16799;50.844;5.304;2023-05-17T07:07:48;27.70;;;15.40;;
29938;SDS011;16799;50.844;5.304;2023-05-17T07:10:14;49.57;;;15.97;;
29938;SDS011;16799;50.844;5.304;2023-05-17T07:12:40;37.30;;;13.57;;
29938;SDS011;16799;50.844;5.304;2023-05-17T07:15:05;35.73;;;16.60;;
29938;SDS011;16799;50.844;5.304;2023-05-17T07:17:31;30.50;;;12.63;;
29938;SDS011;16799;50.844;5.304;2023-05-17T07:19:57;20.13;;;12.83;;
29938;SDS011;16799;50.844;5.304;2023-05-17T07:22:26;31.17;;;13.67;;
29938;SDS011;16799;50.844;5.304;2023-05-17T07:24:51;37.07;;;14.17;;
29938;SDS011;16799;50.844;5.304;2023-05-17T07:27:17;24.57;;;12.77;;
29938;SDS011;16799;50.844;5.304;2023-05-17T07:29:42;25.90;;;12.50;;
29938;SDS011;16799;50.844;5.304;2023-05-17T07:32:08;28.93;;;12.97;;
29938;SDS011;16799;50.844;5.304;2023-05-17T07:34:34;21.67;;;12.07;;
29938;SDS011;16799;50.844;5.304;2023-05-17T07:37:00;27.57;;;14.03;;
29938;SDS011;16799;50.844;5.304;2023-05-17T07:39:26;27.50;;;12.57;;
29938;SDS011;16799;50.844;5.304;2023-05-17T07:41:52;30.00;;;12.30;;
29938;SDS011;16799;50.844;5.304;2023-05-17T07:44:18;19.83;;;11.17;;
29938;SDS011;16799;50.844;5.304;2023-05-17T07:46:45;27.73;;;12.27;;
29938;SDS011;16799;50.844;5.304;2023-05-17T07:49:12;17.63;;;8.53;;
29938;SDS011;16799;50.844;5.304;2023-05-17T07:51:38;15.50;;;9.40;;
29938;SDS011;16799;50.844;5.304;2023-05-17T07:54:03;19.90;;;8.83;;
29938;SDS011;16799;50.844;5.304;2023-05-17T07:56:29;16.13;;;9.47;;
29938;SDS011;16799;50.844;5.304;2023-05-17T07:58:55;20.03;;;9.03;;
29938;SDS011;16799;50.844;5.304;2023-05-17T08:01:21;31.13;;;9.73;;
29938;SDS011;16799;50.844;5.304;2023-05-17T08:03:47;12.67;;;7.00;;
29938;SDS011;16799;50.844;5.304;2023-05-17T08:06:13;11.53;;;7.10;;
29938;SDS011;16799;50.844;5.304;2023-05-17T08:08:40;25.80;;;7.60;;
29938;SDS011;16799;50.844;5.304;2023-05-17T08:11:06;16.37;;;6.63;;
29938;SDS011;16799;50.844;5.304;2023-05-17T08:13:33;9.73;;;5.57;;
29938;SDS011;16799;50.844;5.304;2023-05-17T08:15:59;11.80;;;5.83;;
29938;SDS011;16799;50.844;5.304;2023-05-17T08:18:28;10.97;;;4.77;;
29938;SDS011;16799;50.844;5.304;2023-05-17T08:20:54;16.63;;;4.13;;
29938;SDS011;16799;50.844;5.304;2023-05-17T08:23:20;15.63;;;5.00;;
29938;SDS011;16799;50.844;5.304;2023-05-17T08:25:46;6.90;;;3.83;;
29938;SDS011;16799;50.844;5.304;2023-05-17T08:28:11;8.40;;;4.53;;
29938;SDS011;16799;50.844;5.304;2023-05-17T08:30:37;9.70;;;4.97;;
29938;SDS011;16799;50.844;5.304;2023-05-17T08:33:03;8.23;;;4.03;;
29938;SDS011;16799;50.844;5.304;2023-05-17T08:35:28;6.67;;;4.40;;
29938;SDS011;16799;50.844;5.304;2023-05-17T08:37:55;9.70;;;3.50;;
29938;SDS011;16799;50.844;5.304;2023-05-17T08:40:21;19.20;;;4.60;;
29938;SDS011;16799;50.844;5.304;2023-05-17T08:42:47;7.10;;;3.57;;
29938;SDS011;16799;50.844;5.304;2023-05-17T08:45:16;8.03;;;4.17;;
29938;SDS011;16799;50.844;5.304;2023-05-17T08:47:42;17.80;;;3.30;;
29938;SDS011;16799;50.844;5.304;2023-05-17T08:50:10;4.40;;;3.27;;
29938;SDS011;16799;50.844;5.304;2023-05-17T08:52:37;15.77;;;3.13;;
29938;SDS011;16799;50.844;5.304;2023-05-17T08:55:04;11.10;;;3.40;;
29938;SDS011;16799;50.844;5.304;2023-05-17T08:57:33;7.10;;;3.23;;
29938;SDS011;16799;50.844;5.304;2023-05-17T09:00:03;7.33;;;3.00;;
29938;SDS011;16799;50.844;5.304;2023-05-17T09:02:39;6.87;;;3.57;;
29938;SDS011;16799;50.844;5.304;2023-05-17T09:05:06;11.40;;;3.23;;
29938;SDS011;16799;50.844;5.304;2023-05-17T09:07:33;13.80;;;3.30;;
29938;SDS011;16799;50.844;5.304;2023-05-17T09:09:59;8.63;;;3.77;;
29938;SDS011;16799;50.844;5.304;2023-05-17T09:12:29;14.90;;;4.43;;
29938;SDS011;16799;50.844;5.304;2023-05-17T09:15:11;7.53;;;2.67;;
29938;SDS011;16799;50.844;5.304;2023-05-17T09:17:39;4.33;;;2.43;;
29938;SDS011;16799;50.844;5.304;2023-05-17T09:20:05;5.60;;;3.83;;
29938;SDS011;16799;50.844;5.304;2023-05-17T09:22:32;6.67;;;3.40;;
29938;SDS011;16799;50.844;5.304;2023-05-17T09:24:59;11.40;;;3.27;;
29938;SDS011;16799;50.844;5.304;2023-05-17T09:27:29;8.43;;;3.97;;
29938;SDS011;16799;50.844;5.304;2023-05-17T09:29:55;5.10;;;2.93;;
29938;SDS011;16799;50.844;5.304;2023-05-17T09:32:22;9.23;;;3.03;;
29938;SDS011;16799;50.844;5.304;2023-05-17T09:34:52;5.43;;;2.60;;
29938;SDS011;16799;50.844;5.304;2023-05-17T09:37:18;4.87;;;2.60;;
29938;SDS011;16799;50.844;5.304;2023-05-17T09:39:45;4.60;;;2.77;;
29938;SDS011;16799;50.844;5.304;2023-05-17T09:42:12;5.23;;;2.20;;
29938;SDS011;16799;50.844;5.304;2023-05-17T09:47:20;12.53;;;3.47;;
29938;SDS011;16799;50.844;5.304;2023-05-17T09:49:56;7.00;;;2.90;;
29938;SDS011;16799;50.844;5.304;2023-05-17T09:52:34;6.83;;;3.00;;
29938;SDS011;16799;50.844;5.304;2023-05-17T09:55:00;7.30;;;2.63;;
29938;SDS011;16799;50.844;5.304;2023-05-17T09:57:27;5.97;;;2.33;;
29938;SDS011;16799;50.844;5.304;2023-05-17T10:00:00;6.23;;;2.53;;
29938;SDS011;16799;50.844;5.304;2023-05-17T10:02:27;11.43;;;2.43;;
29938;SDS011;16799;50.844;5.304;2023-05-17T10:04:59;10.60;;;2.73;;
29938;SDS011;16799;50.844;5.304;2023-05-17T10:07:31;13.40;;;3.17;;
29938;SDS011;16799;50.844;5.304;2023-05-17T10:09:59;5.67;;;2.30;;
29938;SDS011;16799;50.844;5.304;2023-05-17T10:12:26;4.00;;;1.93;;
29938;SDS011;16799;50.844;5.304;2023-05-17T10:14:55;5.57;;;2.73;;
29938;SDS011;16799;50.844;5.304;2023-05-17T10:17:23;11.33;;;3.40;;
29938;SDS011;16799;50.844;5.304;2023-05-17T10:19:52;12.47;;;3.03;;
29938;SDS011;16799;50.844;5.304;2023-05-17T10:22:20;8.77;;;2.40;;
29938;SDS011;16799;50.844;5.304;2023-05-17T10:24:46;10.83;;;4.63;;
29938;SDS011;16799;50.844;5.304;2023-05-17T10:27:14;7.53;;;2.80;;
29938;SDS011;16799;50.844;5.304;2023-05-17T10:29:41;23.80;;;2.90;;
29938;SDS011;16799;50.844;5.304;2023-05-17T10:32:08;9.07;;;3.60;;
29938;SDS011;16799;50.844;5.304;2023-05-17T10:34:37;5.80;;;2.80;;
29938;SDS011;16799;50.844;5.304;2023-05-17T10:37:03;7.30;;;2.43;;
29938;SDS011;16799;50.844;5.304;2023-05-17T10:39:30;5.50;;;2.57;;
29938;SDS011;16799;50.844;5.304;2023-05-17T10:41:59;7.43;;;3.73;;
29938;SDS011;16799;50.844;5.304;2023-05-17T10:44:27;5.93;;;1.80;;
29938;SDS011;16799;50.844;5.304;2023-05-17T10:46:57;5.30;;;2.60;;
29938;SDS011;16799;50.844;5.304;2023-05-17T10:49:24;7.37;;;3.00;;
29938;SDS011;16799;50.844;5.304;2023-05-17T10:51:55;6.63;;;1.77;;
29938;SDS011;16799;50.844;5.304;2023-05-17T10:54:33;11.30;;;2.00;;
29938;SDS011;16799;50.844;5.304;2023-05-17T10:57:01;8.53;;;2.60;;
29938;SDS011;16799;50.844;5.304;2023-05-17T10:59:30;6.30;;;2.53;;
29938;SDS011;16799;50.844;5.304;2023-05-17T11:02:01;9.53;;;2.10;;
29938;SDS011;16799;50.844;5.304;2023-05-17T11:04:41;3.70;;;1.83;;
29938;SDS011;16799;50.844;5.304;2023-05-17T11:09:51;7.10;;;2.60;;
29938;SDS011;16799;50.844;5.304;2023-05-17T11:12:36;6.90;;;2.10;;
29938;SDS011;16799;50.844;5.304;2023-05-17T11:17:34;3.97;;;2.13;;
29938;SDS011;16799;50.844;5.304;2023-05-17T11:22:57;4.37;;;2.80;;
29938;SDS011;16799;50.844;5.304;2023-05-17T11:25:31;6.07;;;2.70;;
29938;SDS011;16799;50.844;5.304;2023-05-17T11:27:59;8.57;;;1.97;;
29938;SDS011;16799;50.844;5.304;2023-05-17T11:30:30;9.67;;;2.70;;
29938;SDS011;16799;50.844;5.304;2023-05-17T11:32:57;11.43;;;3.37;;
29938;SDS011;16799;50.844;5.304;2023-05-17T11:35:28;9.43;;;3.03;;
29938;SDS011;16799;50.844;5.304;2023-05-17T11:38:14;8.83;;;1.90;;
29938;SDS011;16799;50.844;5.304;2023-05-17T11:40:49;5.90;;;2.33;;
29938;SDS011;16799;50.844;5.304;2023-05-17T11:43:19;7.23;;;2.53;;
29938;SDS011;16799;50.844;5.304;2023-05-17T11:48:17;8.90;;;2.60;;
29938;SDS011;16799;50.844;5.304;2023-05-17T11:50:46;7.73;;;2.87;;
29938;SDS011;16799;50.844;5.304;2023-05-17T11:53:13;6.50;;;2.87;;
29938;SDS011;16799;50.844;5.304;2023-05-17T11:55:40;6.57;;;2.50;;
29938;SDS011;16799;50.844;5.304;2023-05-17T11:58:07;5.43;;;2.47;;
29938;SDS011;16799;50.844;5.304;2023-05-17T12:00:34;9.40;;;2.63;;
29938;SDS011;16799;50.844;5.304;2023-05-17T12:03:17;10.77;;;2.60;;
29938;SDS011;16799;50.844;5.304;2023-05-17T12:05:49;7.80;;;3.07;;
29938;SDS011;16799;50.844;5.304;2023-05-17T12:08:16;10.47;;;3.10;;
29938;SDS011;16799;50.844;5.304;2023-05-17T12:10:50;5.33;;;2.10;;
29938;SDS011;16799;50.844;5.304;2023-05-17T12:13:16;11.03;;;2.73;;
29938;SDS011;16799;50.844;5.304;2023-05-17T12:15:43;7.33;;;2.40;;
29938;SDS011;16799;50.844;5.304;2023-05-17T12:18:12;9.07;;;2.33;;
29938;SDS011;16799;50.844;5.304;2023-05-17T12:20:51;8.63;;;1.93;;
29938;SDS011;16799;50.844;5.304;2023-05-17T12:23:24;6.97;;;2.87;;
29938;SDS011;16799;50.844;5.304;2023-05-17T12:26:09;7.40;;;2.13;;
29938;SDS011;16799;50.844;5.304;2023-05-17T12:28:43;4.77;;;2.17;;
29938;SDS011;16799;50.844;5.304;2023-05-17T12:31:16;3.53;;;1.93;;
29938;SDS011;16799;50.844;5.304;2023-05-17T12:33:44;10.90;;;2.67;;
29938;SDS011;16799;50.844;5.304;2023-05-17T12:36:12;4.37;;;2.10;;
29938;SDS011;16799;50.844;5.304;2023-05-17T12:38:39;10.10;;;2.57;;
29938;SDS011;16799;50.844;5.304;2023-05-17T12:41:06;2.37;;;1.70;;
29938;SDS011;16799;50.844;5.304;2023-05-17T12:43:33;4.73;;;1.80;;
29938;SDS011;16799;50.844;5.304;2023-05-17T12:48:33;6.13;;;2.07;;
29938;SDS011;16799;50.844;5.304;2023-05-17T12:51:14;5.53;;;1.90;;
29938;SDS011;16799;50.844;5.304;2023-05-17T12:53:42;6.20;;;2.30;;
29938;SDS011;16799;50.844;5.304;2023-05-17T12:56:16;4.90;;;1.57;;
29938;SDS011;16799;50.844;5.304;2023-05-17T13:01:40;9.43;;;1.40;;
29938;SDS011;16799;50.844;5.304;2023-05-17T13:04:11;7.40;;;2.90;;
29938;SDS011;16799;50.844;5.304;2023-05-17T13:06:41;2.97;;;1.60;;
29938;SDS011;16799;50.844;5.304;2023-05-17T13:09:09;5.47;;;2.03;;
29938;SDS011;16799;50.844;5.304;2023-05-17T13:11:34;7.30;;;2.40;;
29938;SDS011;16799;50.844;5.304;2023-05-17T13:14:05;7.23;;;2.40;;
29938;SDS011;16799;50.844;5.304;2023-05-17T13:16:31;9.53;;;2.80;;
29938;SDS011;16799;50.844;5.304;2023-05-17T13:18:58;7.93;;;1.93;;
29938;SDS011;16799;50.844;5.304;2023-05-17T13:21:23;6.50;;;1.73;;
29938;SDS011;16799;50.844;5.304;2023-05-17T13:23:49;4.50;;;1.87;;
29938;SDS011;16799;50.844;5.304;2023-05-17T13:26:15;6.67;;;2.10;;
29938;SDS011;16799;50.844;5.304;2023-05-17T13:28:42;9.10;;;2.00;;
29938;SDS011;16799;50.844;5.304;2023-05-17T13:31:07;5.00;;;2.10;;
29938;SDS011;16799;50.844;5.304;2023-05-17T13:33:33;6.10;;;2.13;;
29938;SDS011;16799;50.844;5.304;2023-05-17T13:35:59;4.47;;;1.80;;
29938;SDS011;16799;50.844;5.304;2023-05-17T13:38:24;5.57;;;1.97;;
29938;SDS011;16799;50.844;5.304;2023-05-17T13:40:50;3.07;;;1.30;;
29938;SDS011;16799;50.844;5.304;2023-05-17T13:43:16;19.30;;;2.93;;
29938;SDS011;16799;50.844;5.304;2023-05-17T13:45:42;10.27;;;2.57;;
29938;SDS011;16799;50.844;5.304;2023-05-17T13:48:07;7.80;;;1.57;;
29938;SDS011;16799;50.844;5.304;2023-05-17T13:50:33;4.33;;;2.00;;
29938;SDS011;16799;50.844;5.304;2023-05-17T13:52:59;2.47;;;1.63;;
29938;SDS011;16799;50.844;5.304;2023-05-17T13:55:26;5.03;;;2.30;;
29938;SDS011;16799;50.844;5.304;2023-05-17T13:57:52;7.47;;;2.10;;
29938;SDS011;16799;50.844;5.304;2023-05-17T14:00:18;7.47;;;1.80;;
29938;SDS011;16799;50.844;5.304;2023-05-17T14:02:44;7.60;;;2.80;;
29938;SDS011;16799;50.844;5.304;2023-05-17T14:05:10;3.53;;;1.90;;
29938;SDS011;16799;50.844;5.304;2023-05-17T14:07:36;6.50;;;2.70;;
29938;SDS011;16799;50.844;5.304;2023-05-17T14:10:09;12.50;;;2.23;;
29938;SDS011;16799;50.844;5.304;2023-05-17T14:12:39;9.60;;;1.90;;
29938;SDS011;16799;50.844;5.304;2023-05-17T14:15:06;3.27;;;2.20;;
29938;SDS011;16799;50.844;5.304;2023-05-17T14:17:32;4.70;;;2.07;;
29938;SDS011;16799;50.844;5.304;2023-05-17T14:19:58;4.70;;;1.90;;
29938;SDS011;16799;50.844;5.304;2023-05-17T14:22:24;5.10;;;1.87;;
29938;SDS011;16799;50.844;5.304;2023-05-17T14:24:49;9.83;;;2.40;;
29938;SDS011;16799;50.844;5.304;2023-05-17T14:27:15;5.50;;;2.03;;
29938;SDS011;16799;50.844;5.304;2023-05-17T14:29:41;4.60;;;2.03;;
29938;SDS011;16799;50.844;5.304;2023-05-17T14:32:06;4.47;;;1.77;;
29938;SDS011;16799;50.844;5.304;2023-05-17T14:34:32;10.77;;;2.30;;
29938;SDS011;16799;50.844;5.304;2023-05-17T14:36:58;6.43;;;2.00;;
29938;SDS011;16799;50.844;5.304;2023-05-17T14:39:23;9.90;;;1.87;;
29938;SDS011;16799;50.844;5.304;2023-05-17T14:41:49;2.00;;;0.93;;
29938;SDS011;16799;50.844;5.304;2023-05-17T14:44:15;3.03;;;1.50;;
29938;SDS011;16799;50.844;5.304;2023-05-17T14:46:40;9.47;;;2.30;;
29938;SDS011;16799;50.844;5.304;2023-05-17T14:49:06;7.93;;;2.30;;
29938;SDS011;16799;50.844;5.304;2023-05-17T14:51:31;2.77;;;1.10;;
29938;SDS011;16799;50.844;5.304;2023-05-17T14:53:57;2.33;;;2.03;;
29938;SDS011;16799;50.844;5.304;2023-05-17T14:56:23;4.73;;;1.73;;
29938;SDS011;16799;50.844;5.304;2023-05-17T14:58:49;5.07;;;1.53;;
29938;SDS011;16799;50.844;5.304;2023-05-17T15:01:15;5.20;;;2.40;;
29938;SDS011;16799;50.844;5.304;2023-05-17T15:03:41;7.27;;;1.97;;
29938;SDS011;16799;50.844;5.304;2023-05-17T15:06:07;2.80;;;1.80;;
29938;SDS011;16799;50.844;5.304;2023-05-17T15:08:33;3.70;;;1.63;;
29938;SDS011;16799;50.844;5.304;2023-05-17T15:10:59;3.10;;;1.70;;